sensor_id;sensor_type;location;lat;lon;timestamp;P1;durP1;ratioP1;P2;durP2;ratioP2
78308;SDS011;67566;42.022;21.356;2023-03-31T00:00:41;34.50;;;17.65;;
78308;SDS011;67566;42.022;21.356;2023-03-31T00:03:07;40.72;;;18.20;;
78308;SDS011;67566;42.022;21.356;2023-03-31T00:05:38;25.63;;;15.18;;
78308;SDS011;67566;42.022;21.356;2023-03-31T00:08:04;25.35;;;15.20;;
78308;SDS011;67566;42.022;21.356;2023-03-31T00:10:30;26.52;;;14.13;;
78308;SDS011;67566;42.022;21.356;2023-03-31T00:12:57;21.15;;;13.10;;
78308;SDS011;67566;42.022;21.356;2023-03-31T00:15:24;31.60;;;17.85;;
78308;SDS011;67566;42.022;21.356;2023-03-31T00:17:50;33.38;;;17.75;;
78308;SDS011;67566;42.022;21.356;2023-03-31T00:20:15;29.35;;;14.82;;
78308;SDS011;67566;42.022;21.356;2023-03-31T00:22:41;24.33;;;13.60;;
78308;SDS011;67566;42.022;21.356;2023-03-31T00:25:13;18.75;;;11.50;;
78308;SDS011;67566;42.022;21.356;2023-03-31T00:27:41;22.23;;;12.25;;
78308;SDS011;67566;42.022;21.356;2023-03-31T00:30:08;23.55;;;13.15;;
78308;SDS011;67566;42.022;21.356;2023-03-31T00:32:34;23.33;;;11.73;;
78308;SDS011;67566;42.022;21.356;2023-03-31T00:35:00;19.23;;;12.32;;
78308;SDS011;67566;42.022;21.356;2023-03-31T00:37:26;23.25;;;13.77;;
78308;SDS011;67566;42.022;21.356;2023-03-31T00:39:52;19.60;;;11.70;;
78308;SDS011;67566;42.022;21.356;2023-03-31T00:42:18;23.60;;;12.68;;
78308;SDS011;67566;42.022;21.356;2023-03-31T00:47:53;18.52;;;11.15;;
78308;SDS011;67566;42.022;21.356;2023-03-31T00:50:25;20.48;;;12.35;;
78308;SDS011;67566;42.022;21.356;2023-03-31T00:52:55;27.80;;;14.77;;
78308;SDS011;67566;42.022;21.356;2023-03-31T00:55:27;22.27;;;13.48;;
78308;SDS011;67566;42.022;21.356;2023-03-31T00:57:58;27.75;;;14.52;;
78308;SDS011;67566;42.022;21.356;2023-03-31T01:00:26;26.08;;;15.73;;
78308;SDS011;67566;42.022;21.356;2023-03-31T01:02:53;20.05;;;12.27;;
78308;SDS011;67566;42.022;21.356;2023-03-31T01:05:26;18.48;;;11.85;;
78308;SDS011;67566;42.022;21.356;2023-03-31T01:07:55;18.17;;;11.77;;
78308;SDS011;67566;42.022;21.356;2023-03-31T01:10:23;21.25;;;12.45;;
78308;SDS011;67566;42.022;21.356;2023-03-31T01:12:51;17.70;;;11.27;;
78308;SDS011;67566;42.022;21.356;2023-03-31T01:15:18;19.65;;;12.40;;
78308;SDS011;67566;42.022;21.356;2023-03-31T01:17:44;17.08;;;10.85;;
78308;SDS011;67566;42.022;21.356;2023-03-31T01:46:42;19.02;;;10.10;;
78308;SDS011;67566;42.022;21.356;2023-03-31T01:55:20;15.27;;;9.07;;
78308;SDS011;67566;42.022;21.356;2023-03-31T01:58:10;19.98;;;10.10;;
78308;SDS011;67566;42.022;21.356;2023-03-31T02:00:41;17.85;;;9.60;;
78308;SDS011;67566;42.022;21.356;2023-03-31T02:03:25;14.43;;;9.90;;
78308;SDS011;67566;42.022;21.356;2023-03-31T02:05:57;12.02;;;7.03;;
78308;SDS011;67566;42.022;21.356;2023-03-31T02:08:30;16.17;;;9.52;;
78308;SDS011;67566;42.022;21.356;2023-03-31T02:11:00;15.65;;;9.88;;
78308;SDS011;67566;42.022;21.356;2023-03-31T02:13:27;18.92;;;11.90;;
78308;SDS011;67566;42.022;21.356;2023-03-31T02:15:55;18.80;;;10.52;;
78308;SDS011;67566;42.022;21.356;2023-03-31T02:18:26;15.68;;;9.27;;
78308;SDS011;67566;42.022;21.356;2023-03-31T02:20:57;18.05;;;11.85;;
78308;SDS011;67566;42.022;21.356;2023-03-31T02:23:25;17.15;;;9.43;;
78308;SDS011;67566;42.022;21.356;2023-03-31T02:26:00;19.58;;;10.98;;
78308;SDS011;67566;42.022;21.356;2023-03-31T02:28:32;22.75;;;11.70;;
78308;SDS011;67566;42.022;21.356;2023-03-31T02:33:54;19.08;;;9.93;;
78308;SDS011;67566;42.022;21.356;2023-03-31T02:36:20;19.65;;;11.20;;
78308;SDS011;67566;42.022;21.356;2023-03-31T02:38:47;25.48;;;12.93;;
78308;SDS011;67566;42.022;21.356;2023-03-31T02:41:28;14.52;;;10.05;;
78308;SDS011;67566;42.022;21.356;2023-03-31T02:43:54;13.52;;;8.52;;
78308;SDS011;67566;42.022;21.356;2023-03-31T02:46:20;13.48;;;8.25;;
78308;SDS011;67566;42.022;21.356;2023-03-31T02:48:47;15.38;;;8.63;;
78308;SDS011;67566;42.022;21.356;2023-03-31T03:10:36;17.85;;;10.63;;
78308;SDS011;67566;42.022;21.356;2023-03-31T03:18:54;37.72;;;22.00;;
78308;SDS011;67566;42.022;21.356;2023-03-31T03:21:23;32.40;;;20.83;;
78308;SDS011;67566;42.022;21.356;2023-03-31T03:23:49;50.28;;;29.02;;
78308;SDS011;67566;42.022;21.356;2023-03-31T03:26:16;46.20;;;27.67;;
78308;SDS011;67566;42.022;21.356;2023-03-31T03:28:46;42.28;;;26.10;;
78308;SDS011;67566;42.022;21.356;2023-03-31T03:31:12;37.08;;;23.67;;
78308;SDS011;67566;42.022;21.356;2023-03-31T03:33:37;21.88;;;14.73;;
78308;SDS011;67566;42.022;21.356;2023-03-31T03:36:03;18.15;;;11.20;;
78308;SDS011;67566;42.022;21.356;2023-03-31T03:38:29;19.02;;;11.68;;
78308;SDS011;67566;42.022;21.356;2023-03-31T03:40:55;20.58;;;10.75;;
78308;SDS011;67566;42.022;21.356;2023-03-31T03:43:20;17.63;;;10.80;;
78308;SDS011;67566;42.022;21.356;2023-03-31T03:45:49;15.57;;;9.13;;
78308;SDS011;67566;42.022;21.356;2023-03-31T03:48:15;18.20;;;9.80;;
78308;SDS011;67566;42.022;21.356;2023-03-31T03:50:40;12.00;;;8.75;;
78308;SDS011;67566;42.022;21.356;2023-03-31T03:53:06;12.45;;;8.40;;
78308;SDS011;67566;42.022;21.356;2023-03-31T03:55:32;29.23;;;14.07;;
78308;SDS011;67566;42.022;21.356;2023-03-31T03:57:58;27.40;;;13.30;;
78308;SDS011;67566;42.022;21.356;2023-03-31T04:00:24;121.22;;;49.78;;
78308;SDS011;67566;42.022;21.356;2023-03-31T04:02:50;68.53;;;33.10;;
78308;SDS011;67566;42.022;21.356;2023-03-31T04:05:15;40.60;;;20.20;;
78308;SDS011;67566;42.022;21.356;2023-03-31T04:07:41;67.47;;;31.08;;
78308;SDS011;67566;42.022;21.356;2023-03-31T04:10:06;28.92;;;15.88;;
78308;SDS011;67566;42.022;21.356;2023-03-31T04:12:36;27.55;;;14.13;;
78308;SDS011;67566;42.022;21.356;2023-03-31T04:15:02;27.27;;;15.77;;
78308;SDS011;67566;42.022;21.356;2023-03-31T04:17:28;27.35;;;13.93;;
78308;SDS011;67566;42.022;21.356;2023-03-31T04:20:05;18.92;;;12.95;;
78308;SDS011;67566;42.022;21.356;2023-03-31T04:22:33;19.15;;;11.75;;
78308;SDS011;67566;42.022;21.356;2023-03-31T04:25:08;16.08;;;10.75;;
78308;SDS011;67566;42.022;21.356;2023-03-31T04:27:41;15.93;;;9.18;;
78308;SDS011;67566;42.022;21.356;2023-03-31T04:30:23;16.20;;;8.63;;
78308;SDS011;67566;42.022;21.356;2023-03-31T04:32:55;13.32;;;8.32;;
78308;SDS011;67566;42.022;21.356;2023-03-31T04:35:26;13.02;;;8.10;;
78308;SDS011;67566;42.022;21.356;2023-03-31T04:38:12;15.27;;;8.25;;
78308;SDS011;67566;42.022;21.356;2023-03-31T04:40:38;14.93;;;8.90;;
78308;SDS011;67566;42.022;21.356;2023-03-31T04:43:05;16.65;;;9.07;;
78308;SDS011;67566;42.022;21.356;2023-03-31T04:45:30;12.50;;;7.90;;
78308;SDS011;67566;42.022;21.356;2023-03-31T04:47:56;16.80;;;9.18;;
78308;SDS011;67566;42.022;21.356;2023-03-31T04:50:21;16.75;;;9.15;;
78308;SDS011;67566;42.022;21.356;2023-03-31T04:52:47;15.27;;;9.90;;
78308;SDS011;67566;42.022;21.356;2023-03-31T04:55:12;14.68;;;9.50;;
78308;SDS011;67566;42.022;21.356;2023-03-31T04:57:38;14.48;;;8.68;;
78308;SDS011;67566;42.022;21.356;2023-03-31T05:00:03;23.52;;;13.00;;
78308;SDS011;67566;42.022;21.356;2023-03-31T05:02:32;32.53;;;19.02;;
78308;SDS011;67566;42.022;21.356;2023-03-31T05:04:57;25.42;;;15.00;;
78308;SDS011;67566;42.022;21.356;2023-03-31T05:07:23;20.20;;;13.23;;
78308;SDS011;67566;42.022;21.356;2023-03-31T05:09:48;19.60;;;12.10;;
78308;SDS011;67566;42.022;21.356;2023-03-31T05:12:14;26.77;;;14.48;;
78308;SDS011;67566;42.022;21.356;2023-03-31T05:14:40;25.20;;;14.85;;
78308;SDS011;67566;42.022;21.356;2023-03-31T05:17:05;28.73;;;17.33;;
78308;SDS011;67566;42.022;21.356;2023-03-31T05:19:31;34.60;;;20.67;;
78308;SDS011;67566;42.022;21.356;2023-03-31T05:21:56;28.02;;;16.38;;
78308;SDS011;67566;42.022;21.356;2023-03-31T05:24:22;25.10;;;15.05;;
78308;SDS011;67566;42.022;21.356;2023-03-31T05:26:47;39.15;;;20.23;;
78308;SDS011;67566;42.022;21.356;2023-03-31T05:29:19;24.83;;;17.02;;
78308;SDS011;67566;42.022;21.356;2023-03-31T05:31:46;17.63;;;11.70;;
78308;SDS011;67566;42.022;21.356;2023-03-31T05:34:12;16.45;;;11.00;;
78308;SDS011;67566;42.022;21.356;2023-03-31T05:36:37;16.98;;;11.68;;
78308;SDS011;67566;42.022;21.356;2023-03-31T05:39:03;14.85;;;10.23;;
78308;SDS011;67566;42.022;21.356;2023-03-31T05:41:29;16.38;;;10.75;;
78308;SDS011;67566;42.022;21.356;2023-03-31T05:43:55;13.60;;;10.05;;
78308;SDS011;67566;42.022;21.356;2023-03-31T05:46:21;15.85;;;9.40;;
78308;SDS011;67566;42.022;21.356;2023-03-31T05:48:46;18.15;;;12.80;;
78308;SDS011;67566;42.022;21.356;2023-03-31T05:51:12;13.82;;;10.48;;
78308;SDS011;67566;42.022;21.356;2023-03-31T05:53:37;14.80;;;9.15;;
78308;SDS011;67566;42.022;21.356;2023-03-31T05:56:03;16.17;;;10.48;;
78308;SDS011;67566;42.022;21.356;2023-03-31T05:58:32;13.82;;;10.55;;
78308;SDS011;67566;42.022;21.356;2023-03-31T06:00:59;11.20;;;8.73;;
78308;SDS011;67566;42.022;21.356;2023-03-31T06:03:26;16.70;;;10.55;;
78308;SDS011;67566;42.022;21.356;2023-03-31T06:05:51;15.98;;;10.15;;
78308;SDS011;67566;42.022;21.356;2023-03-31T06:08:18;13.60;;;8.48;;
78308;SDS011;67566;42.022;21.356;2023-03-31T06:10:44;10.05;;;7.43;;
78308;SDS011;67566;42.022;21.356;2023-03-31T06:13:09;10.55;;;7.22;;
78308;SDS011;67566;42.022;21.356;2023-03-31T06:15:35;13.07;;;6.43;;
78308;SDS011;67566;42.022;21.356;2023-03-31T06:18:00;11.38;;;7.82;;
78308;SDS011;67566;42.022;21.356;2023-03-31T06:20:26;12.25;;;7.50;;
78308;SDS011;67566;42.022;21.356;2023-03-31T06:22:51;10.77;;;7.20;;
78308;SDS011;67566;42.022;21.356;2023-03-31T06:25:16;14.38;;;7.53;;
78308;SDS011;67566;42.022;21.356;2023-03-31T06:27:42;12.20;;;7.63;;
78308;SDS011;67566;42.022;21.356;2023-03-31T06:30:07;10.65;;;8.13;;
78308;SDS011;67566;42.022;21.356;2023-03-31T06:32:33;12.32;;;7.63;;
78308;SDS011;67566;42.022;21.356;2023-03-31T06:34:59;13.35;;;9.13;;
78308;SDS011;67566;42.022;21.356;2023-03-31T06:37:24;13.82;;;8.15;;
78308;SDS011;67566;42.022;21.356;2023-03-31T06:39:50;11.50;;;7.90;;
78308;SDS011;67566;42.022;21.356;2023-03-31T06:42:15;10.63;;;7.28;;
78308;SDS011;67566;42.022;21.356;2023-03-31T06:44:41;13.68;;;8.80;;
78308;SDS011;67566;42.022;21.356;2023-03-31T06:47:06;12.70;;;8.35;;
78308;SDS011;67566;42.022;21.356;2023-03-31T06:49:32;10.32;;;7.35;;
78308;SDS011;67566;42.022;21.356;2023-03-31T07:15:47;21.42;;;14.88;;
78308;SDS011;67566;42.022;21.356;2023-03-31T07:18:14;9.57;;;7.35;;
78308;SDS011;67566;42.022;21.356;2023-03-31T07:20:41;10.95;;;7.57;;
78308;SDS011;67566;42.022;21.356;2023-03-31T07:23:08;6.95;;;5.68;;
78308;SDS011;67566;42.022;21.356;2023-03-31T07:25:34;9.07;;;5.70;;
78308;SDS011;67566;42.022;21.356;2023-03-31T07:28:00;8.43;;;6.53;;
78308;SDS011;67566;42.022;21.356;2023-03-31T07:30:25;12.50;;;6.68;;
78308;SDS011;67566;42.022;21.356;2023-03-31T07:32:52;12.23;;;8.65;;
78308;SDS011;67566;42.022;21.356;2023-03-31T07:35:18;9.57;;;8.57;;
78308;SDS011;67566;42.022;21.356;2023-03-31T07:37:45;11.63;;;7.25;;
78308;SDS011;67566;42.022;21.356;2023-03-31T07:40:17;14.38;;;11.10;;
78308;SDS011;67566;42.022;21.356;2023-03-31T07:42:47;10.90;;;7.00;;
78308;SDS011;67566;42.022;21.356;2023-03-31T07:45:15;7.75;;;6.18;;
78308;SDS011;67566;42.022;21.356;2023-03-31T07:47:42;8.10;;;6.70;;
78308;SDS011;67566;42.022;21.356;2023-03-31T07:50:10;9.20;;;6.25;;
78308;SDS011;67566;42.022;21.356;2023-03-31T07:52:36;7.50;;;5.88;;
78308;SDS011;67566;42.022;21.356;2023-03-31T07:55:02;9.98;;;6.32;;
78308;SDS011;67566;42.022;21.356;2023-03-31T07:57:28;11.57;;;7.65;;
78308;SDS011;67566;42.022;21.356;2023-03-31T07:59:54;9.13;;;6.55;;
78308;SDS011;67566;42.022;21.356;2023-03-31T08:02:19;11.65;;;7.25;;
78308;SDS011;67566;42.022;21.356;2023-03-31T08:04:45;9.15;;;7.03;;
78308;SDS011;67566;42.022;21.356;2023-03-31T08:07:11;9.50;;;7.65;;
78308;SDS011;67566;42.022;21.356;2023-03-31T08:09:38;8.52;;;6.10;;
78308;SDS011;67566;42.022;21.356;2023-03-31T08:12:05;13.68;;;8.50;;
78308;SDS011;67566;42.022;21.356;2023-03-31T08:14:30;11.13;;;7.00;;
78308;SDS011;67566;42.022;21.356;2023-03-31T08:16:56;9.70;;;6.22;;
78308;SDS011;67566;42.022;21.356;2023-03-31T08:19:24;9.50;;;7.88;;
78308;SDS011;67566;42.022;21.356;2023-03-31T08:21:50;12.13;;;8.02;;
78308;SDS011;67566;42.022;21.356;2023-03-31T08:24:16;9.07;;;6.65;;
78308;SDS011;67566;42.022;21.356;2023-03-31T08:26:42;13.10;;;7.97;;
78308;SDS011;67566;42.022;21.356;2023-03-31T08:29:08;9.20;;;6.68;;
78308;SDS011;67566;42.022;21.356;2023-03-31T08:31:33;9.48;;;6.30;;
78308;SDS011;67566;42.022;21.356;2023-03-31T08:33:59;11.18;;;7.30;;
78308;SDS011;67566;42.022;21.356;2023-03-31T08:36:25;8.75;;;6.95;;
78308;SDS011;67566;42.022;21.356;2023-03-31T08:38:51;9.52;;;6.60;;
78308;SDS011;67566;42.022;21.356;2023-03-31T08:44:31;8.75;;;6.60;;
78308;SDS011;67566;42.022;21.356;2023-03-31T08:47:17;13.75;;;6.93;;
78308;SDS011;67566;42.022;21.356;2023-03-31T08:49:50;10.75;;;7.93;;
78308;SDS011;67566;42.022;21.356;2023-03-31T08:54:57;12.07;;;6.53;;
78308;SDS011;67566;42.022;21.356;2023-03-31T08:57:29;12.32;;;6.85;;
78308;SDS011;67566;42.022;21.356;2023-03-31T09:00:00;9.23;;;6.93;;
78308;SDS011;67566;42.022;21.356;2023-03-31T09:02:38;10.88;;;7.10;;
78308;SDS011;67566;42.022;21.356;2023-03-31T09:11:10;9.52;;;6.25;;
78308;SDS011;67566;42.022;21.356;2023-03-31T09:18:57;9.73;;;7.03;;
78308;SDS011;67566;42.022;21.356;2023-03-31T09:21:26;12.77;;;6.88;;
78308;SDS011;67566;42.022;21.356;2023-03-31T09:26:38;11.15;;;5.22;;
78308;SDS011;67566;42.022;21.356;2023-03-31T09:29:20;9.65;;;4.90;;
78308;SDS011;67566;42.022;21.356;2023-03-31T09:31:48;7.70;;;5.07;;
78308;SDS011;67566;42.022;21.356;2023-03-31T09:34:26;9.73;;;5.35;;
78308;SDS011;67566;42.022;21.356;2023-03-31T09:36:54;9.13;;;4.80;;
78308;SDS011;67566;42.022;21.356;2023-03-31T09:39:19;11.02;;;5.85;;
78308;SDS011;67566;42.022;21.356;2023-03-31T09:41:46;10.25;;;6.25;;
78308;SDS011;67566;42.022;21.356;2023-03-31T09:44:21;12.05;;;6.43;;
78308;SDS011;67566;42.022;21.356;2023-03-31T09:46:47;10.23;;;5.13;;
78308;SDS011;67566;42.022;21.356;2023-03-31T09:49:17;10.05;;;6.40;;
78308;SDS011;67566;42.022;21.356;2023-03-31T09:51:45;8.93;;;4.82;;
78308;SDS011;67566;42.022;21.356;2023-03-31T09:54:27;9.20;;;5.28;;
78308;SDS011;67566;42.022;21.356;2023-03-31T09:56:58;10.45;;;5.13;;
78308;SDS011;67566;42.022;21.356;2023-03-31T09:59:32;7.30;;;4.93;;
78308;SDS011;67566;42.022;21.356;2023-03-31T10:02:00;9.40;;;4.88;;
78308;SDS011;67566;42.022;21.356;2023-03-31T10:04:29;11.38;;;4.53;;
78308;SDS011;67566;42.022;21.356;2023-03-31T10:06:58;11.77;;;6.15;;
78308;SDS011;67566;42.022;21.356;2023-03-31T10:09:25;7.82;;;4.32;;
78308;SDS011;67566;42.022;21.356;2023-03-31T10:11:58;7.60;;;3.92;;
78308;SDS011;67566;42.022;21.356;2023-03-31T10:14:31;9.95;;;5.53;;
78308;SDS011;67566;42.022;21.356;2023-03-31T10:17:05;6.88;;;4.30;;
78308;SDS011;67566;42.022;21.356;2023-03-31T10:19:34;10.63;;;4.93;;
78308;SDS011;67566;42.022;21.356;2023-03-31T10:22:15;14.90;;;6.90;;
78308;SDS011;67566;42.022;21.356;2023-03-31T10:24:52;7.03;;;4.78;;
78308;SDS011;67566;42.022;21.356;2023-03-31T10:27:22;6.40;;;4.10;;
78308;SDS011;67566;42.022;21.356;2023-03-31T10:29:53;7.75;;;4.93;;
78308;SDS011;67566;42.022;21.356;2023-03-31T10:32:23;12.00;;;4.40;;
78308;SDS011;67566;42.022;21.356;2023-03-31T10:34:53;9.18;;;3.75;;
78308;SDS011;67566;42.022;21.356;2023-03-31T10:37:24;7.82;;;3.90;;
78308;SDS011;67566;42.022;21.356;2023-03-31T10:40:12;9.65;;;4.40;;
78308;SDS011;67566;42.022;21.356;2023-03-31T10:42:39;12.68;;;4.80;;
78308;SDS011;67566;42.022;21.356;2023-03-31T10:47:35;10.43;;;4.18;;
78308;SDS011;67566;42.022;21.356;2023-03-31T10:50:03;9.70;;;3.92;;
78308;SDS011;67566;42.022;21.356;2023-03-31T10:52:42;12.68;;;4.25;;
78308;SDS011;67566;42.022;21.356;2023-03-31T10:55:13;10.55;;;3.97;;
78308;SDS011;67566;42.022;21.356;2023-03-31T10:57:50;11.55;;;6.10;;
78308;SDS011;67566;42.022;21.356;2023-03-31T11:03:14;9.18;;;4.00;;
78308;SDS011;67566;42.022;21.356;2023-03-31T11:11:49;8.25;;;3.78;;
78308;SDS011;67566;42.022;21.356;2023-03-31T11:14:22;8.88;;;3.88;;
78308;SDS011;67566;42.022;21.356;2023-03-31T11:33:47;7.40;;;3.28;;
78308;SDS011;67566;42.022;21.356;2023-03-31T11:44:08;13.20;;;3.90;;
78308;SDS011;67566;42.022;21.356;2023-03-31T11:46:38;9.50;;;3.97;;
78308;SDS011;67566;42.022;21.356;2023-03-31T11:49:27;7.38;;;4.18;;
78308;SDS011;67566;42.022;21.356;2023-03-31T11:52:06;10.45;;;4.22;;
78308;SDS011;67566;42.022;21.356;2023-03-31T11:54:42;7.80;;;4.32;;
78308;SDS011;67566;42.022;21.356;2023-03-31T11:57:18;7.85;;;3.13;;
78308;SDS011;67566;42.022;21.356;2023-03-31T11:59:52;7.18;;;3.85;;
78308;SDS011;67566;42.022;21.356;2023-03-31T12:02:23;7.82;;;3.78;;
78308;SDS011;67566;42.022;21.356;2023-03-31T12:05:11;11.30;;;3.92;;
78308;SDS011;67566;42.022;21.356;2023-03-31T12:07:45;9.45;;;3.50;;
78308;SDS011;67566;42.022;21.356;2023-03-31T12:21:28;7.50;;;3.53;;
78308;SDS011;67566;42.022;21.356;2023-03-31T12:23:58;8.48;;;3.00;;
78308;SDS011;67566;42.022;21.356;2023-03-31T12:26:29;5.95;;;3.60;;
78308;SDS011;67566;42.022;21.356;2023-03-31T12:29:02;7.88;;;3.60;;
78308;SDS011;67566;42.022;21.356;2023-03-31T12:31:36;8.30;;;3.60;;
78308;SDS011;67566;42.022;21.356;2023-03-31T12:34:07;7.68;;;4.00;;
78308;SDS011;67566;42.022;21.356;2023-03-31T12:45:05;6.68;;;3.38;;
78308;SDS011;67566;42.022;21.356;2023-03-31T12:59:35;6.25;;;2.97;;
78308;SDS011;67566;42.022;21.356;2023-03-31T13:04:33;7.97;;;3.10;;
78308;SDS011;67566;42.022;21.356;2023-03-31T13:07:04;5.32;;;2.63;;
78308;SDS011;67566;42.022;21.356;2023-03-31T13:09:37;4.20;;;2.30;;
78308;SDS011;67566;42.022;21.356;2023-03-31T13:12:12;5.40;;;2.63;;
78308;SDS011;67566;42.022;21.356;2023-03-31T13:14:41;5.32;;;2.53;;
78308;SDS011;67566;42.022;21.356;2023-03-31T13:17:17;8.05;;;2.75;;
78308;SDS011;67566;42.022;21.356;2023-03-31T13:19:50;6.95;;;2.63;;
78308;SDS011;67566;42.022;21.356;2023-03-31T13:22:27;7.85;;;3.10;;
78308;SDS011;67566;42.022;21.356;2023-03-31T13:28:23;9.77;;;2.85;;
78308;SDS011;67566;42.022;21.356;2023-03-31T13:44:51;6.25;;;2.50;;
78308;SDS011;67566;42.022;21.356;2023-03-31T13:50:36;6.88;;;2.85;;
78308;SDS011;67566;42.022;21.356;2023-03-31T14:05:23;7.95;;;3.00;;
78308;SDS011;67566;42.022;21.356;2023-03-31T14:07:58;7.40;;;2.47;;
78308;SDS011;67566;42.022;21.356;2023-03-31T14:10:30;6.25;;;2.80;;
78308;SDS011;67566;42.022;21.356;2023-03-31T14:13:18;5.82;;;2.72;;
78308;SDS011;67566;42.022;21.356;2023-03-31T14:18:31;8.60;;;3.03;;
78308;SDS011;67566;42.022;21.356;2023-03-31T14:34:48;6.60;;;2.85;;
78308;SDS011;67566;42.022;21.356;2023-03-31T14:37:17;7.55;;;2.88;;
78308;SDS011;67566;42.022;21.356;2023-03-31T14:39:54;4.25;;;2.53;;
78308;SDS011;67566;42.022;21.356;2023-03-31T14:47:33;5.70;;;2.47;;
78308;SDS011;67566;42.022;21.356;2023-03-31T14:52:46;4.53;;;2.47;;
78308;SDS011;67566;42.022;21.356;2023-03-31T14:55:23;7.38;;;2.65;;
78308;SDS011;67566;42.022;21.356;2023-03-31T14:57:52;4.60;;;2.10;;
78308;SDS011;67566;42.022;21.356;2023-03-31T15:00:27;5.43;;;2.28;;
78308;SDS011;67566;42.022;21.356;2023-03-31T15:02:56;5.80;;;2.75;;
78308;SDS011;67566;42.022;21.356;2023-03-31T15:05:35;7.70;;;2.60;;
78308;SDS011;67566;42.022;21.356;2023-03-31T15:08:20;6.47;;;2.75;;
78308;SDS011;67566;42.022;21.356;2023-03-31T15:10:57;5.93;;;2.40;;
78308;SDS011;67566;42.022;21.356;2023-03-31T15:13:32;7.95;;;2.55;;
78308;SDS011;67566;42.022;21.356;2023-03-31T15:16:29;7.45;;;2.70;;
78308;SDS011;67566;42.022;21.356;2023-03-31T15:19:20;7.40;;;3.10;;
78308;SDS011;67566;42.022;21.356;2023-03-31T15:21:57;7.63;;;3.08;;
78308;SDS011;67566;42.022;21.356;2023-03-31T15:24:26;7.50;;;2.22;;
78308;SDS011;67566;42.022;21.356;2023-03-31T15:34:54;8.45;;;3.13;;
78308;SDS011;67566;42.022;21.356;2023-03-31T15:37:21;9.27;;;4.22;;
78308;SDS011;67566;42.022;21.356;2023-03-31T15:39:53;10.02;;;5.90;;
78308;SDS011;67566;42.022;21.356;2023-03-31T15:42:22;12.13;;;7.10;;
78308;SDS011;67566;42.022;21.356;2023-03-31T15:44:55;9.13;;;5.25;;
78308;SDS011;67566;42.022;21.356;2023-03-31T15:47:49;11.95;;;5.45;;
78308;SDS011;67566;42.022;21.356;2023-03-31T15:50:16;7.80;;;4.43;;
78308;SDS011;67566;42.022;21.356;2023-03-31T15:52:48;6.65;;;2.80;;
78308;SDS011;67566;42.022;21.356;2023-03-31T15:57:48;5.60;;;3.13;;
78308;SDS011;67566;42.022;21.356;2023-03-31T16:05:56;6.38;;;2.92;;
78308;SDS011;67566;42.022;21.356;2023-03-31T16:08:36;4.53;;;2.05;;
78308;SDS011;67566;42.022;21.356;2023-03-31T16:11:22;6.80;;;3.05;;
78308;SDS011;67566;42.022;21.356;2023-03-31T16:14:14;7.80;;;2.45;;
78308;SDS011;67566;42.022;21.356;2023-03-31T16:16:57;5.38;;;2.42;;
78308;SDS011;67566;42.022;21.356;2023-03-31T16:19:29;5.43;;;2.05;;
78308;SDS011;67566;42.022;21.356;2023-03-31T16:22:03;5.88;;;2.15;;
78308;SDS011;67566;42.022;21.356;2023-03-31T16:24:30;4.95;;;1.88;;
78308;SDS011;67566;42.022;21.356;2023-03-31T16:26:58;4.65;;;2.17;;
78308;SDS011;67566;42.022;21.356;2023-03-31T16:29:26;5.22;;;1.95;;
78308;SDS011;67566;42.022;21.356;2023-03-31T16:32:05;4.82;;;2.50;;
78308;SDS011;67566;42.022;21.356;2023-03-31T16:34:33;13.85;;;5.88;;
78308;SDS011;67566;42.022;21.356;2023-03-31T16:36:59;11.10;;;6.10;;
78308;SDS011;67566;42.022;21.356;2023-03-31T16:39:32;35.10;;;20.77;;
78308;SDS011;67566;42.022;21.356;2023-03-31T16:41:57;38.60;;;18.83;;
78308;SDS011;67566;42.022;21.356;2023-03-31T16:44:23;74.18;;;37.97;;
78308;SDS011;67566;42.022;21.356;2023-03-31T16:46:48;61.15;;;29.23;;
78308;SDS011;67566;42.022;21.356;2023-03-31T16:49:13;43.67;;;31.55;;
78308;SDS011;67566;42.022;21.356;2023-03-31T16:51:39;31.15;;;23.92;;
78308;SDS011;67566;42.022;21.356;2023-03-31T16:54:04;36.05;;;21.38;;
78308;SDS011;67566;42.022;21.356;2023-03-31T16:56:30;30.38;;;17.48;;
78308;SDS011;67566;42.022;21.356;2023-03-31T16:58:55;25.35;;;15.77;;
78308;SDS011;67566;42.022;21.356;2023-03-31T17:01:21;24.42;;;17.08;;
78308;SDS011;67566;42.022;21.356;2023-03-31T17:03:46;25.27;;;15.40;;
78308;SDS011;67566;42.022;21.356;2023-03-31T17:06:12;26.10;;;16.02;;
78308;SDS011;67566;42.022;21.356;2023-03-31T17:08:38;26.23;;;15.73;;
78308;SDS011;67566;42.022;21.356;2023-03-31T17:11:05;34.15;;;18.67;;
78308;SDS011;67566;42.022;21.356;2023-03-31T17:13:34;127.63;;;76.25;;
78308;SDS011;67566;42.022;21.356;2023-03-31T17:16:00;62.90;;;36.58;;
78308;SDS011;67566;42.022;21.356;2023-03-31T17:18:26;48.15;;;27.02;;
78308;SDS011;67566;42.022;21.356;2023-03-31T17:20:52;38.13;;;21.67;;
78308;SDS011;67566;42.022;21.356;2023-03-31T17:23:18;47.33;;;24.73;;
78308;SDS011;67566;42.022;21.356;2023-03-31T17:25:48;52.53;;;30.98;;
78308;SDS011;67566;42.022;21.356;2023-03-31T17:30:40;34.97;;;21.17;;
78308;SDS011;67566;42.022;21.356;2023-03-31T17:33:08;47.78;;;26.45;;
78308;SDS011;67566;42.022;21.356;2023-03-31T17:35:35;35.50;;;19.27;;
78308;SDS011;67566;42.022;21.356;2023-03-31T17:38:01;34.25;;;19.45;;
78308;SDS011;67566;42.022;21.356;2023-03-31T17:40:28;33.67;;;19.48;;
78308;SDS011;67566;42.022;21.356;2023-03-31T17:42:57;24.55;;;15.25;;
78308;SDS011;67566;42.022;21.356;2023-03-31T17:45:23;20.73;;;10.85;;
78308;SDS011;67566;42.022;21.356;2023-03-31T17:47:49;14.55;;;9.82;;
78308;SDS011;67566;42.022;21.356;2023-03-31T17:50:15;23.55;;;13.20;;
78308;SDS011;67566;42.022;21.356;2023-03-31T17:52:42;23.27;;;17.40;;
78308;SDS011;67566;42.022;21.356;2023-03-31T17:55:07;34.65;;;18.42;;
78308;SDS011;67566;42.022;21.356;2023-03-31T17:57:33;38.72;;;23.15;;
78308;SDS011;67566;42.022;21.356;2023-03-31T18:00:01;29.63;;;17.23;;
78308;SDS011;67566;42.022;21.356;2023-03-31T18:02:28;26.10;;;15.82;;
78308;SDS011;67566;42.022;21.356;2023-03-31T18:04:54;27.23;;;18.48;;
78308;SDS011;67566;42.022;21.356;2023-03-31T18:07:19;73.53;;;42.83;;
78308;SDS011;67566;42.022;21.356;2023-03-31T18:09:47;53.50;;;32.33;;
78308;SDS011;67566;42.022;21.356;2023-03-31T18:12:13;37.78;;;22.92;;
78308;SDS011;67566;42.022;21.356;2023-03-31T18:14:38;44.42;;;26.17;;
78308;SDS011;67566;42.022;21.356;2023-03-31T18:17:04;82.25;;;57.45;;
78308;SDS011;67566;42.022;21.356;2023-03-31T18:19:29;55.85;;;34.75;;
78308;SDS011;67566;42.022;21.356;2023-03-31T18:21:56;32.13;;;21.77;;
78308;SDS011;67566;42.022;21.356;2023-03-31T18:24:21;231.43;;;88.47;;
78308;SDS011;67566;42.022;21.356;2023-03-31T18:26:47;120.60;;;63.35;;
78308;SDS011;67566;42.022;21.356;2023-03-31T18:29:12;92.45;;;45.83;;
78308;SDS011;67566;42.022;21.356;2023-03-31T18:31:38;111.78;;;46.63;;
78308;SDS011;67566;42.022;21.356;2023-03-31T18:34:04;110.68;;;40.35;;
78308;SDS011;67566;42.022;21.356;2023-03-31T18:36:29;64.05;;;28.55;;
78308;SDS011;67566;42.022;21.356;2023-03-31T18:38:55;128.52;;;57.58;;
78308;SDS011;67566;42.022;21.356;2023-03-31T18:41:20;76.70;;;43.22;;
78308;SDS011;67566;42.022;21.356;2023-03-31T18:43:47;70.38;;;37.00;;
78308;SDS011;67566;42.022;21.356;2023-03-31T18:46:16;49.75;;;27.88;;